Time;durP1;ratioP1;P1;durP2;ratioP2;P2;SDS_P1;SDS_P2;PMS_P1;PMS_P2;Temp;Humidity;BMP_temperature;BMP_pressure;BME280_temperature;BME280_humidity;BME280_pressure;Samples;Min_cycle;Max_cycle;Signal;HPM_P1;HPM_P2
2023/10/22 00:00:48;;;;;;;;;;;12.70;99.90;;;;;;5179913;27;19926;-42
2023/10/22 00:03:14;;;;;;;;;;;12.70;99.90;;;;;;5179810;27;20278;-42
2023/10/22 00:05:40;;;;;;;;;;;12.70;99.90;;;;;;5179730;27;19930;-42
2023/10/22 00:08:06;;;;;;;;;;;12.70;99.90;;;;;;5179595;27;19923;-43
2023/10/22 00:10:31;;;;;;;;;;;12.70;99.90;;;;;;5179705;27;20002;-42
2023/10/22 00:12:57;;;;;;;;;;;12.60;99.90;;;;;;5179679;27;19972;-43
2023/10/22 00:15:24;;;;;;;;;;;12.70;99.90;;;;;;5179405;27;19931;-42
2023/10/22 00:17:50;;;;;;;;;;;12.60;99.90;;;;;;5179390;27;20376;-42
2023/10/22 00:20:16;;;;;;;;;;;12.60;99.90;;;;;;5179609;27;19930;-43
2023/10/22 00:22:41;;;;;;;;;;;12.60;99.90;;;;;;5179367;27;19923;-42
2023/10/22 00:25:07;;;;;;;;;;;12.60;99.90;;;;;;5179369;27;19929;-42
2023/10/22 00:27:33;;;;;;;;;;;12.60;99.90;;;;;;5179178;27;20018;-42
2023/10/22 00:29:59;;;;;;;;;;;12.60;99.90;;;;;;5179148;27;19968;-42
2023/10/22 00:32:25;;;;;;;;;;;12.60;99.90;;;;;;5160951;27;19958;-42
2023/10/22 00:34:51;;;;;;;;;;;12.60;99.90;;;;;;5160954;27;20396;-42
2023/10/22 00:37:16;;;;;;;;;;;12.60;99.90;;;;;;5160164;27;20015;-42
2023/10/22 00:39:42;;;;;;;;;;;12.60;99.90;;;;;;5179040;27;19927;-42
2023/10/22 00:42:11;;;;;;;;;;;12.60;99.90;;;;;;5179004;27;19945;-42
2023/10/22 00:44:37;;;;;;;;;;;12.50;99.90;;;;;;5179384;27;20021;-42
2023/10/22 00:47:03;;;;;;;;;;;12.50;99.90;;;;;;5178986;27;20325;-42
2023/10/22 00:49:29;;;;;;;;;;;12.60;99.90;;;;;;5178766;27;19967;-42
2023/10/22 00:51:55;;;;;;;;;;;12.60;99.90;;;;;;5178978;27;20377;-42
2023/10/22 00:54:21;;;;;;;;;;;12.60;99.90;;;;;;5178819;27;19923;-42
2023/10/22 00:56:48;;;;;;;;;;;12.60;99.90;;;;;;5178597;27;19930;-42
2023/10/22 00:59:14;;;;;;;;;;;12.50;99.90;;;;;;5178823;27;19947;-42
2023/10/22 01:01:40;;;;;;;;;;;12.50;99.90;;;;;;5178723;27;19941;-42
2023/10/22 01:04:05;;;;;;;;;;;12.50;99.90;;;;;;5178753;27;19923;-42
2023/10/22 01:06:31;;;;;;;;;;;12.50;99.90;;;;;;5178640;27;19923;-42
2023/10/22 01:08:57;;;;;;;;;;;12.50;99.90;;;;;;5178502;27;19922;-42
2023/10/22 01:11:23;;;;;;;;;;;12.50;99.90;;;;;;5178571;27;19927;-42
2023/10/22 01:13:48;;;;;;;;;;;12.50;99.90;;;;;;5178428;27;19923;-42
2023/10/22 01:16:14;;;;;;;;;;;12.50;99.90;;;;;;5160069;27;20331;-42
2023/10/22 01:18:39;;;;;;;;;;;12.50;99.90;;;;;;5178296;27;19922;-44
2023/10/22 01:21:05;;;;;;;;;;;12.60;99.90;;;;;;5178246;27;19923;-43
2023/10/22 01:23:35;;;;;;;;;;;12.60;99.90;;;;;;5178127;27;19922;-43
2023/10/22 01:26:01;;;;;;;;;;;12.60;99.90;;;;;;5178109;27;19929;-42
2023/10/22 01:28:27;;;;;;;;;;;12.60;99.90;;;;;;5178569;27;19923;-43
2023/10/22 01:30:55;;;;;;;;;;;12.60;99.90;;;;;;5178200;27;19923;-44
2023/10/22 01:33:21;;;;;;;;;;;12.60;99.90;;;;;;5178352;27;19922;-42
2023/10/22 01:35:46;;;;;;;;;;;12.70;99.90;;;;;;5178144;27;19982;-43
2023/10/22 01:38:12;;;;;;;;;;;12.70;99.90;;;;;;5178006;27;20285;-43
2023/10/22 01:40:38;;;;;;;;;;;12.70;99.90;;;;;;5177936;27;19927;-44
2023/10/22 01:43:04;;;;;;;;;;;12.70;99.90;;;;;;5159542;27;19923;-42
2023/10/22 01:45:29;;;;;;;;;;;12.80;99.90;;;;;;5177915;27;19929;-42
2023/10/22 01:47:56;;;;;;;;;;;12.70;99.90;;;;;;5176759;27;19923;-42
2023/10/22 01:50:21;;;;;;;;;;;12.70;99.90;;;;;;5177651;27;20009;-43
2023/10/22 01:52:47;;;;;;;;;;;12.80;99.90;;;;;;5159221;27;19974;-42
2023/10/22 01:55:12;;;;;;;;;;;12.80;99.90;;;;;;5159232;27;19930;-42
2023/10/22 01:57:38;;;;;;;;;;;12.80;99.90;;;;;;5177635;27;19926;-43
2023/10/22 02:00:04;;;;;;;;;;;12.80;99.90;;;;;;5177608;27;19923;-42
2023/10/22 02:02:29;;;;;;;;;;;12.70;99.90;;;;;;5159142;27;20376;-42
2023/10/22 02:04:55;;;;;;;;;;;12.70;99.90;;;;;;5177601;27;19923;-42
2023/10/22 02:07:21;;;;;;;;;;;12.70;99.90;;;;;;5177229;27;19930;-42
2023/10/22 02:09:46;;;;;;;;;;;12.70;99.90;;;;;;5177318;27;19922;-42
2023/10/22 02:12:12;;;;;;;;;;;12.60;99.90;;;;;;5177592;27;20019;-42
2023/10/22 02:14:37;;;;;;;;;;;12.60;99.90;;;;;;5177287;27;19923;-42
2023/10/22 02:17:03;;;;;;;;;;;12.60;99.90;;;;;;5177311;27;19923;-42
2023/10/22 02:19:29;;;;;;;;;;;12.60;99.90;;;;;;5177206;27;19977;-43
2023/10/22 02:21:54;;;;;;;;;;;12.60;99.90;;;;;;5177174;27;19929;-42
2023/10/22 02:24:20;;;;;;;;;;;12.60;99.90;;;;;;5177183;27;19962;-43
2023/10/22 02:26:46;;;;;;;;;;;12.50;99.90;;;;;;5176776;27;20388;-42
2023/10/22 02:29:12;;;;;;;;;;;12.50;99.90;;;;;;5158895;27;19930;-42
2023/10/22 02:31:38;;;;;;;;;;;12.50;99.90;;;;;;5158485;27;20399;-43
2023/10/22 02:34:05;;;;;;;;;;;12.50;99.90;;;;;;5177207;27;19974;-43
2023/10/22 02:36:30;;;;;;;;;;;12.50;99.90;;;;;;5176928;27;19923;-42
2023/10/22 02:38:56;;;;;;;;;;;12.50;99.90;;;;;;5176815;27;19930;-43
2023/10/22 02:41:22;;;;;;;;;;;12.50;99.90;;;;;;5176676;27;19929;-42
2023/10/22 02:43:47;;;;;;;;;;;12.40;99.90;;;;;;5141266;27;19933;-43
2023/10/22 02:46:14;;;;;;;;;;;12.40;99.90;;;;;;5176952;27;19931;-42
2023/10/22 02:48:39;;;;;;;;;;;12.40;99.90;;;;;;5176417;27;20379;-42
2023/10/22 02:51:06;;;;;;;;;;;12.40;99.90;;;;;;5176699;27;19970;-43
2023/10/22 02:53:31;;;;;;;;;;;12.40;99.90;;;;;;5176545;27;19929;-44
2023/10/22 02:56:03;;;;;;;;;;;12.40;99.90;;;;;;5176617;27;20005;-44
2023/10/22 02:58:29;;;;;;;;;;;12.40;99.90;;;;;;5176330;27;19923;-43
2023/10/22 03:00:55;;;;;;;;;;;12.30;99.90;;;;;;5176588;27;19923;-42
2023/10/22 03:03:21;;;;;;;;;;;12.30;99.90;;;;;;5176555;27;19929;-43
2023/10/22 03:05:47;;;;;;;;;;;12.30;99.90;;;;;;5176495;27;20397;-42
2023/10/22 03:08:12;;;;;;;;;;;12.30;99.90;;;;;;5176447;27;19974;-42
2023/10/22 03:10:38;;;;;;;;;;;12.30;99.90;;;;;;5177226;27;19929;-43
2023/10/22 03:13:04;;;;;;;;;;;12.30;99.90;;;;;;5176815;27;19930;-42
2023/10/22 03:15:30;;;;;;;;;;;12.30;99.90;;;;;;5176519;27;19923;-42
2023/10/22 03:17:56;;;;;;;;;;;12.30;99.90;;;;;;5176463;27;19981;-42
2023/10/22 03:20:25;;;;;;;;;;;12.20;99.90;;;;;;5158121;27;19978;-42
2023/10/22 03:22:51;;;;;;;;;;;12.20;99.90;;;;;;5176247;27;19923;-42
2023/10/22 03:25:17;;;;;;;;;;;12.20;99.90;;;;;;5176406;27;20267;-42
2023/10/22 03:27:43;;;;;;;;;;;12.20;99.90;;;;;;5176329;27;19927;-42
2023/10/22 03:30:10;;;;;;;;;;;12.20;99.90;;;;;;5176472;27;20044;-42
2023/10/22 03:32:36;;;;;;;;;;;12.20;99.90;;;;;;5157965;27;20404;-42
2023/10/22 03:35:05;;;;;;;;;;;12.20;99.90;;;;;;5176324;27;19923;-42
2023/10/22 03:37:31;;;;;;;;;;;12.20;99.90;;;;;;5176023;27;20373;-42
2023/10/22 03:39:57;;;;;;;;;;;12.20;99.90;;;;;;5176315;27;19922;-42
2023/10/22 03:42:22;;;;;;;;;;;12.20;99.90;;;;;;5176293;27;19934;-42
2023/10/22 03:44:48;;;;;;;;;;;12.20;99.90;;;;;;5176192;27;20037;-41
2023/10/22 03:47:13;;;;;;;;;;;12.20;99.90;;;;;;5176040;27;19923;-42
2023/10/22 03:49:39;;;;;;;;;;;12.20;99.90;;;;;;5157232;27;20017;-42
2023/10/22 03:52:05;;;;;;;;;;;12.20;99.90;;;;;;5176129;27;19962;-42
2023/10/22 03:54:31;;;;;;;;;;;12.20;99.90;;;;;;5176213;27;19923;-42
2023/10/22 03:56:56;;;;;;;;;;;12.20;99.90;;;;;;5158000;27;19930;-42
2023/10/22 03:59:22;;;;;;;;;;;12.20;99.90;;;;;;5176057;27;19927;-42
2023/10/22 04:01:47;;;;;;;;;;;12.20;99.90;;;;;;5176119;27;19927;-42
2023/10/22 04:04:13;;;;;;;;;;;12.20;99.90;;;;;;5176192;27;19923;-42
2023/10/22 04:06:39;;;;;;;;;;;12.20;99.90;;;;;;5176020;27;19922;-42
2023/10/22 04:09:04;;;;;;;;;;;12.20;99.90;;;;;;5176206;27;20058;-42
2023/10/22 04:11:30;;;;;;;;;;;12.20;99.90;;;;;;5177564;27;19970;-42
2023/10/22 04:13:55;;;;;;;;;;;12.20;99.90;;;;;;5179737;27;19929;-42
2023/10/22 04:16:21;;;;;;;;;;;12.20;99.90;;;;;;5179531;27;19922;-42
2023/10/22 04:18:47;;;;;;;;;;;12.20;99.90;;;;;;5179432;27;19923;-42
2023/10/22 04:21:13;;;;;;;;;;;12.20;99.90;;;;;;5179621;27;19970;-42
2023/10/22 04:23:38;;;;;;;;;;;12.20;99.90;;;;;;5179329;27;19926;-42
2023/10/22 04:26:04;;;;;;;;;;;12.20;99.90;;;;;;5179581;27;20366;-42
2023/10/22 04:28:30;;;;;;;;;;;12.20;99.90;;;;;;5179379;27;19930;-42
2023/10/22 04:30:55;;;;;;;;;;;12.20;99.90;;;;;;5179353;27;19967;-42
2023/10/22 04:33:21;;;;;;;;;;;12.20;99.90;;;;;;5179159;27;19923;-42
2023/10/22 04:35:47;;;;;;;;;;;12.20;99.90;;;;;;5179207;27;19970;-42
2023/10/22 04:38:13;;;;;;;;;;;12.20;99.90;;;;;;5179559;27;19922;-42
2023/10/22 04:40:39;;;;;;;;;;;12.20;99.90;;;;;;5179177;27;19922;-42
2023/10/22 04:43:04;;;;;;;;;;;12.20;99.90;;;;;;5179176;27;19922;-42
2023/10/22 04:45:30;;;;;;;;;;;12.20;99.90;;;;;;5179128;27;19927;-42
2023/10/22 04:47:55;;;;;;;;;;;12.20;99.90;;;;;;5178823;27;19923;-42
2023/10/22 04:50:21;;;;;;;;;;;12.20;99.90;;;;;;5178847;27;19930;-42
2023/10/22 04:52:47;;;;;;;;;;;12.20;99.90;;;;;;5179240;27;20441;-42
2023/10/22 04:55:15;;;;;;;;;;;12.20;99.90;;;;;;5179330;27;19926;-43
2023/10/22 04:57:40;;;;;;;;;;;12.20;99.90;;;;;;5178940;27;19991;-42
2023/10/22 05:00:10;;;;;;;;;;;12.20;99.90;;;;;;5160281;27;20373;-42
2023/10/22 05:02:36;;;;;;;;;;;12.20;99.90;;;;;;5178736;27;19981;-42
2023/10/22 05:05:02;;;;;;;;;;;12.20;99.90;;;;;;5178620;27;19967;-42
2023/10/22 05:07:28;;;;;;;;;;;12.20;99.90;;;;;;5178632;27;19945;-42
2023/10/22 05:09:53;;;;;;;;;;;12.20;99.90;;;;;;5178371;27;20385;-42
2023/10/22 05:12:19;;;;;;;;;;;12.20;99.90;;;;;;5178503;27;19988;-42
2023/10/22 05:14:44;;;;;;;;;;;12.20;99.90;;;;;;5178580;27;19922;-42
2023/10/22 05:17:10;;;;;;;;;;;12.20;99.90;;;;;;5178307;27;19947;-42
2023/10/22 05:19:35;;;;;;;;;;;12.20;99.90;;;;;;5178165;27;19982;-42
2023/10/22 05:22:01;;;;;;;;;;;12.20;99.90;;;;;;5178009;27;19949;-42
2023/10/22 05:24:27;;;;;;;;;;;12.20;99.90;;;;;;5178274;27;19922;-44
2023/10/22 05:26:53;;;;;;;;;;;12.20;99.90;;;;;;5178203;27;19933;-42
2023/10/22 05:29:18;;;;;;;;;;;12.20;99.90;;;;;;5178245;27;20278;-42
2023/10/22 05:31:44;;;;;;;;;;;12.20;99.90;;;;;;5178007;27;19929;-42
2023/10/22 05:34:09;;;;;;;;;;;12.20;99.90;;;;;;5177896;27;19967;-43
2023/10/22 05:36:35;;;;;;;;;;;12.20;99.90;;;;;;5177916;27;19922;-42
2023/10/22 05:39:01;;;;;;;;;;;12.20;99.90;;;;;;5178082;27;20338;-42
2023/10/22 05:41:27;;;;;;;;;;;12.20;99.90;;;;;;5177975;27;19991;-42
2023/10/22 05:43:56;;;;;;;;;;;12.20;99.90;;;;;;5177926;27;20389;-42
2023/10/22 05:46:25;;;;;;;;;;;12.20;99.90;;;;;;5177889;27;20035;-42
2023/10/22 05:48:51;;;;;;;;;;;12.20;99.90;;;;;;5177373;27;19923;-42
2023/10/22 05:51:17;;;;;;;;;;;12.30;99.90;;;;;;5177474;27;20418;-42
2023/10/22 05:53:43;;;;;;;;;;;12.30;99.90;;;;;;5177770;27;19930;-42
2023/10/22 05:56:08;;;;;;;;;;;12.30;99.90;;;;;;5177660;27;19947;-42
2023/10/22 05:58:34;;;;;;;;;;;12.30;99.90;;;;;;5177783;27;19930;-42
2023/10/22 06:00:59;;;;;;;;;;;12.30;99.90;;;;;;5177571;27;19922;-42
2023/10/22 06:03:25;;;;;;;;;;;12.30;99.90;;;;;;5177341;27;19923;-42
2023/10/22 06:05:50;;;;;;;;;;;12.40;99.90;;;;;;5177209;27;19923;-42
2023/10/22 06:08:16;;;;;;;;;;;12.40;99.90;;;;;;5177359;27;20049;-42
2023/10/22 06:10:42;;;;;;;;;;;12.40;99.90;;;;;;5177378;27;20373;-42
2023/10/22 06:13:08;;;;;;;;;;;12.40;99.90;;;;;;5177270;27;20013;-43
2023/10/22 06:15:37;;;;;;;;;;;12.40;99.90;;;;;;5177258;27;19923;-43
2023/10/22 06:18:03;;;;;;;;;;;12.40;99.90;;;;;;5177131;27;19974;-42
2023/10/22 06:20:32;;;;;;;;;;;12.40;99.90;;;;;;5176988;27;19933;-42
2023/10/22 06:22:58;;;;;;;;;;;12.40;99.90;;;;;;5177176;27;19923;-41
2023/10/22 06:25:23;;;;;;;;;;;12.50;99.90;;;;;;5177357;27;19929;-41
2023/10/22 06:27:49;;;;;;;;;;;12.50;99.90;;;;;;5177002;27;19923;-41
2023/10/22 06:30:15;;;;;;;;;;;12.50;99.90;;;;;;5177027;27;19929;-41
2023/10/22 06:32:41;;;;;;;;;;;12.50;99.90;;;;;;5158683;27;19923;-41
2023/10/22 06:35:07;;;;;;;;;;;12.50;99.90;;;;;;5176497;27;19927;-41
2023/10/22 06:37:33;;;;;;;;;;;12.50;99.90;;;;;;5176941;27;19927;-41
2023/10/22 06:40:01;;;;;;;;;;;12.40;99.90;;;;;;5176813;27;19923;-41
2023/10/22 06:42:27;;;;;;;;;;;12.40;99.90;;;;;;5176891;27;19929;-41
2023/10/22 06:44:52;;;;;;;;;;;12.30;99.90;;;;;;5176867;27;19926;-41
2023/10/22 06:47:18;;;;;;;;;;;12.30;99.90;;;;;;5176425;27;20258;-42
2023/10/22 06:49:44;;;;;;;;;;;12.20;99.90;;;;;;5176752;27;19923;-41
2023/10/22 06:52:09;;;;;;;;;;;12.20;99.90;;;;;;5176784;27;19923;-41
2023/10/22 06:54:35;;;;;;;;;;;12.20;99.90;;;;;;5176766;27;19927;-41
2023/10/22 06:57:00;;;;;;;;;;;12.20;99.90;;;;;;5176807;27;19923;-41
2023/10/22 06:59:26;;;;;;;;;;;12.20;99.90;;;;;;5176631;27;19923;-41
2023/10/22 07:01:51;;;;;;;;;;;12.20;99.90;;;;;;5176547;27;19923;-41
2023/10/22 07:04:19;;;;;;;;;;;12.20;99.90;;;;;;5176657;27;19927;-41
2023/10/22 07:06:45;;;;;;;;;;;12.10;99.90;;;;;;5158188;27;19930;-42
2023/10/22 07:09:11;;;;;;;;;;;12.10;99.90;;;;;;5176538;27;19923;-41
2023/10/22 07:11:38;;;;;;;;;;;12.10;99.90;;;;;;5176412;27;19922;-41
2023/10/22 07:14:04;;;;;;;;;;;12.10;99.90;;;;;;5176422;27;19923;-41
2023/10/22 07:16:30;;;;;;;;;;;12.10;99.90;;;;;;5176392;27;19930;-41
2023/10/22 07:18:56;;;;;;;;;;;12.00;99.90;;;;;;5176505;27;20278;-41
2023/10/22 07:21:21;;;;;;;;;;;12.00;99.90;;;;;;5176500;27;19923;-41
2023/10/22 07:23:47;;;;;;;;;;;12.00;99.90;;;;;;5176407;27;19994;-42
2023/10/22 07:26:12;;;;;;;;;;;12.00;99.90;;;;;;5176446;27;19934;-41
2023/10/22 07:28:41;;;;;;;;;;;12.00;99.90;;;;;;5176141;27;19922;-42
2023/10/22 07:31:07;;;;;;;;;;;12.00;99.90;;;;;;5176144;27;19923;-42
2023/10/22 07:33:32;;;;;;;;;;;12.00;99.90;;;;;;5176402;27;20422;-42
2023/10/22 07:36:00;;;;;;;;;;;12.00;99.90;;;;;;5176353;27;19923;-42
2023/10/22 07:38:29;;;;;;;;;;;12.00;99.90;;;;;;5176345;27;19923;-42
2023/10/22 07:40:57;;;;;;;;;;;12.10;99.90;;;;;;5176289;27;19923;-42
2023/10/22 07:43:26;;;;;;;;;;;12.10;99.90;;;;;;5176089;27;19967;-43
2023/10/22 07:45:52;;;;;;;;;;;12.10;99.90;;;;;;5176665;27;20274;-42
2023/10/22 07:48:18;;;;;;;;;;;12.10;99.90;;;;;;5180151;27;19930;-43
2023/10/22 07:50:43;;;;;;;;;;;12.10;99.90;;;;;;5161667;27;20009;-43
2023/10/22 07:53:09;;;;;;;;;;;12.10;99.90;;;;;;5180574;27;20399;-44
2023/10/22 07:55:34;;;;;;;;;;;12.10;99.90;;;;;;5180067;27;19929;-42
2023/10/22 07:58:00;;;;;;;;;;;12.10;99.90;;;;;;5161545;27;19923;-42
2023/10/22 08:00:25;;;;;;;;;;;12.10;99.90;;;;;;5179740;27;19923;-43
2023/10/22 08:02:51;;;;;;;;;;;12.10;99.90;;;;;;5161376;27;20037;-42
2023/10/22 08:05:18;;;;;;;;;;;12.10;99.90;;;;;;5161627;27;19923;-42
2023/10/22 08:07:44;;;;;;;;;;;12.10;99.90;;;;;;5179671;27;19977;-42
2023/10/22 08:10:09;;;;;;;;;;;12.10;99.90;;;;;;5179628;27;19923;-41
2023/10/22 08:12:35;;;;;;;;;;;12.00;99.90;;;;;;5179816;27;19947;-42
2023/10/22 08:15:01;;;;;;;;;;;12.00;99.90;;;;;;5143941;27;19922;-42
2023/10/22 08:17:26;;;;;;;;;;;12.00;99.90;;;;;;5179668;27;20322;-42
2023/10/22 08:19:52;;;;;;;;;;;12.00;99.90;;;;;;5179374;27;19973;-41
2023/10/22 08:22:18;;;;;;;;;;;12.00;99.90;;;;;;5179723;27;19922;-42
2023/10/22 08:24:48;;;;;;;;;;;12.00;99.90;;;;;;5179555;27;19923;-42
2023/10/22 08:27:14;;;;;;;;;;;12.00;99.90;;;;;;5179493;27;19945;-42
2023/10/22 08:29:39;;;;;;;;;;;12.00;99.90;;;;;;5160853;27;19923;-42
2023/10/22 08:32:05;;;;;;;;;;;12.10;99.90;;;;;;5179372;27;19930;-42
2023/10/22 08:34:32;;;;;;;;;;;12.10;99.90;;;;;;5179375;27;19930;-42
2023/10/22 08:36:57;;;;;;;;;;;12.10;99.90;;;;;;5179659;27;19922;-42
2023/10/22 08:39:25;;;;;;;;;;;12.00;99.90;;;;;;5179082;27;20408;-42
2023/10/22 08:42:00;;;;;;;;;;;12.00;99.90;;;;;;5178951;27;20396;-42
2023/10/22 08:44:28;;;;;;;;;;;12.10;99.90;;;;;;5179513;27;19975;-42
2023/10/22 08:46:53;;;;;;;;;;;12.10;99.90;;;;;;5179046;27;20010;-42
2023/10/22 08:49:19;;;;;;;;;;;12.10;99.90;;;;;;5178722;27;19922;-42
2023/10/22 08:51:45;;;;;;;;;;;12.10;99.90;;;;;;5179044;27;19983;-42
2023/10/22 08:54:10;;;;;;;;;;;12.20;99.90;;;;;;5160576;27;19923;-42
2023/10/22 08:56:36;;;;;;;;;;;12.20;99.90;;;;;;5178341;27;19923;-42
2023/10/22 08:59:02;;;;;;;;;;;12.20;99.90;;;;;;5178870;27;19922;-42
2023/10/22 09:01:28;;;;;;;;;;;12.20;99.90;;;;;;5178845;27;19966;-42
2023/10/22 09:03:54;;;;;;;;;;;12.20;99.90;;;;;;5178819;27;19927;-42
2023/10/22 09:06:22;;;;;;;;;;;12.30;99.90;;;;;;5178600;27;20293;-42
2023/10/22 09:08:47;;;;;;;;;;;12.30;99.90;;;;;;5178535;27;20014;-42
2023/10/22 09:11:17;;;;;;;;;;;12.30;99.90;;;;;;5178428;27;20389;-42
2023/10/22 09:13:43;;;;;;;;;;;12.30;99.90;;;;;;5178974;27;19930;-42
2023/10/22 09:16:09;;;;;;;;;;;12.30;99.90;;;;;;5178504;27;20365;-42
2023/10/22 09:18:44;;;;;;;;;;;12.40;99.90;;;;;;5178418;27;19923;-42
2023/10/22 09:21:10;;;;;;;;;;;12.40;99.90;;;;;;5178167;27;20385;-42
2023/10/22 09:23:35;;;;;;;;;;;12.40;99.90;;;;;;5178133;27;19922;-42
2023/10/22 09:26:01;;;;;;;;;;;12.40;99.90;;;;;;5177980;27;19930;-42
2023/10/22 09:28:27;;;;;;;;;;;12.40;99.90;;;;;;5160317;27;20374;-42
2023/10/22 09:31:00;;;;;;;;;;;12.50;99.90;;;;;;5178222;27;20021;-42
2023/10/22 09:33:38;;;;;;;;;;;12.50;99.90;;;;;;5178272;27;19923;-42
2023/10/22 09:36:11;;;;;;;;;;;12.50;99.90;;;;;;5159518;27;20436;-42
2023/10/22 09:38:41;;;;;;;;;;;12.50;99.90;;;;;;5159504;27;19930;-42
2023/10/22 09:41:06;;;;;;;;;;;12.50;99.90;;;;;;5178114;27;19972;-43
2023/10/22 09:43:32;;;;;;;;;;;12.50;99.90;;;;;;5178171;27;20387;-42
2023/10/22 09:45:57;;;;;;;;;;;12.60;99.90;;;;;;5177818;27;19923;-42
2023/10/22 09:48:24;;;;;;;;;;;12.60;99.90;;;;;;5177793;27;19973;-42
2023/10/22 09:50:50;;;;;;;;;;;12.60;99.90;;;;;;5177605;27;20031;-42
2023/10/22 09:53:17;;;;;;;;;;;12.70;99.90;;;;;;5177784;27;20387;-42
2023/10/22 09:55:45;;;;;;;;;;;12.70;99.90;;;;;;5177877;27;20036;-42
2023/10/22 09:58:14;;;;;;;;;;;12.70;99.90;;;;;;5177751;27;19970;-42
2023/10/22 10:00:40;;;;;;;;;;;12.80;99.90;;;;;;5177526;27;20021;-42
2023/10/22 10:03:05;;;;;;;;;;;12.80;99.90;;;;;;5177437;27;19988;-43
2023/10/22 10:05:33;;;;;;;;;;;12.90;99.90;;;;;;5177287;27;19923;-42
2023/10/22 10:07:58;;;;;;;;;;;13.00;99.90;;;;;;5177328;27;19945;-43
2023/10/22 10:10:24;;;;;;;;;;;13.10;99.90;;;;;;5176958;27;20389;-43
2023/10/22 10:12:50;;;;;;;;;;;13.10;99.90;;;;;;5177375;27;19974;-42
2023/10/22 10:15:45;;;;;;;;;;;13.10;99.90;;;;;;5177407;27;20367;-42
2023/10/22 10:18:11;;;;;;;;;;;13.10;99.90;;;;;;5155315;27;19923;-42
2023/10/22 10:20:39;;;;;;;;;;;13.10;99.90;;;;;;5177192;27;20426;-42
2023/10/22 10:23:09;;;;;;;;;;;13.20;99.90;;;;;;5177120;27;20013;-43
2023/10/22 10:25:35;;;;;;;;;;;13.20;99.90;;;;;;5177205;27;19923;-43
2023/10/22 10:28:02;;;;;;;;;;;13.30;99.90;;;;;;5177016;27;19974;-42
2023/10/22 10:30:28;;;;;;;;;;;13.30;99.90;;;;;;5177001;27;19959;-43
2023/10/22 10:32:53;;;;;;;;;;;13.30;99.90;;;;;;5177091;27;19997;-43
2023/10/22 10:35:19;;;;;;;;;;;13.40;99.90;;;;;;5176976;27;19923;-42
2023/10/22 10:38:03;;;;;;;;;;;13.40;99.90;;;;;;5176956;27;19970;-43
2023/10/22 10:40:42;;;;;;;;;;;13.50;99.90;;;;;;5177047;27;19923;-43
2023/10/22 10:43:08;;;;;;;;;;;13.50;99.90;;;;;;5176679;27;19922;-42
2023/10/22 10:45:34;;;;;;;;;;;13.50;99.90;;;;;;5176876;27;19930;-43
2023/10/22 10:48:00;;;;;;;;;;;13.50;99.90;;;;;;5176788;27;19929;-42
2023/10/22 10:50:25;;;;;;;;;;;13.40;99.90;;;;;;5176588;27;19929;-42
2023/10/22 10:52:52;;;;;;;;;;;13.30;99.90;;;;;;5176738;27;19923;-42
2023/10/22 10:55:20;;;;;;;;;;;13.30;99.90;;;;;;5176709;27;20389;-42
2023/10/22 10:57:48;;;;;;;;;;;13.20;99.90;;;;;;5176506;27;19970;-42
2023/10/22 11:00:19;;;;;;;;;;;13.20;99.90;;;;;;5176779;27;20006;-41
2023/10/22 11:02:48;;;;;;;;;;;13.20;99.90;;;;;;5176710;27;19926;-41
2023/10/22 11:05:15;;;;;;;;;;;13.20;99.90;;;;;;5158131;27;19923;-41
2023/10/22 11:07:42;;;;;;;;;;;13.30;99.90;;;;;;5158118;27;19923;-43
2023/10/22 11:10:14;;;;;;;;;;;13.40;99.90;;;;;;5176576;27;19923;-41
2023/10/22 11:12:39;;;;;;;;;;;13.40;99.90;;;;;;5176620;27;20017;-42
2023/10/22 11:15:07;;;;;;;;;;;13.50;99.90;;;;;;5176680;27;19988;-43
2023/10/22 11:17:32;;;;;;;;;;;13.50;99.90;;;;;;5176351;27;19985;-41
2023/10/22 11:19:58;;;;;;;;;;;13.60;99.90;;;;;;5177298;27;19966;-41
2023/10/22 11:22:23;;;;;;;;;;;13.60;99.90;;;;;;5180609;27;19982;-41
2023/10/22 11:24:49;;;;;;;;;;;13.60;99.90;;;;;;5180541;27;19923;-41
2023/10/22 11:27:15;;;;;;;;;;;13.60;99.90;;;;;;5180685;27;20273;-42
2023/10/22 11:29:41;;;;;;;;;;;13.60;99.90;;;;;;5180649;27;19922;-42
2023/10/22 11:32:10;;;;;;;;;;;13.60;99.90;;;;;;5180567;27;20328;-41
2023/10/22 11:34:36;;;;;;;;;;;13.60;99.90;;;;;;5180666;27;19923;-42
2023/10/22 11:37:02;;;;;;;;;;;13.60;99.90;;;;;;5180370;27;19923;-41
2023/10/22 11:39:32;;;;;;;;;;;13.60;99.90;;;;;;5180272;27;19923;-42
2023/10/22 11:42:01;;;;;;;;;;;13.50;99.90;;;;;;5180400;27;19923;-42
2023/10/22 11:44:30;;;;;;;;;;;13.60;99.90;;;;;;5180319;27;20396;-41
2023/10/22 11:46:59;;;;;;;;;;;13.70;99.90;;;;;;5180307;27;19967;-41
2023/10/22 11:49:25;;;;;;;;;;;13.80;99.90;;;;;;5179770;27;19930;-42
2023/10/22 11:51:50;;;;;;;;;;;14.00;99.90;;;;;;5179973;27;20006;-41
2023/10/22 11:54:16;;;;;;;;;;;14.10;99.90;;;;;;5180970;27;19922;-41
2023/10/22 11:56:41;;;;;;;;;;;14.30;99.90;;;;;;5180184;27;19926;-41
2023/10/22 11:59:07;;;;;;;;;;;14.40;99.90;;;;;;5179960;27;19929;-41
2023/10/22 12:01:33;;;;;;;;;;;14.50;99.90;;;;;;5179905;27;19927;-41
2023/10/22 12:03:59;;;;;;;;;;;14.40;99.90;;;;;;5179880;27;19922;-41
2023/10/22 12:06:25;;;;;;;;;;;14.30;99.90;;;;;;5179704;27;19923;-42
2023/10/22 12:08:50;;;;;;;;;;;14.20;99.90;;;;;;5179542;27;20289;-41
2023/10/22 12:11:16;;;;;;;;;;;14.10;99.90;;;;;;5161277;27;19988;-41
2023/10/22 12:13:41;;;;;;;;;;;14.00;99.90;;;;;;5179817;27;19923;-42
2023/10/22 12:16:07;;;;;;;;;;;13.90;99.90;;;;;;5161051;27;19923;-41
2023/10/22 12:18:32;;;;;;;;;;;13.90;99.90;;;;;;5179535;27;20029;-41
2023/10/22 12:20:58;;;;;;;;;;;13.90;99.90;;;;;;5179738;27;19923;-42
2023/10/22 12:23:24;;;;;;;;;;;13.80;99.90;;;;;;5179603;27;20369;-41
2023/10/22 12:25:50;;;;;;;;;;;13.80;99.90;;;;;;5179527;27;20405;-41
2023/10/22 12:28:16;;;;;;;;;;;13.80;99.90;;;;;;5160742;27;19962;-41
2023/10/22 12:30:41;;;;;;;;;;;13.80;99.90;;;;;;5179279;27;19931;-42
2023/10/22 12:33:08;;;;;;;;;;;13.80;99.90;;;;;;5178366;27;19922;-41
2023/10/22 12:35:38;;;;;;;;;;;13.80;99.90;;;;;;5179272;27;19930;-42
2023/10/22 12:38:03;;;;;;;;;;;13.80;99.90;;;;;;5160738;27;19923;-42
2023/10/22 12:40:29;;;;;;;;;;;13.80;99.90;;;;;;5179259;27;20021;-42
2023/10/22 12:42:55;;;;;;;;;;;13.90;99.90;;;;;;5179164;27;19922;-41
2023/10/22 12:45:20;;;;;;;;;;;13.90;99.90;;;;;;5179372;27;20005;-41
2023/10/22 12:47:46;;;;;;;;;;;14.00;99.90;;;;;;5179268;27;19974;-41
2023/10/22 12:50:12;;;;;;;;;;;14.00;99.90;;;;;;5178692;27;20091;-41
2023/10/22 12:52:37;;;;;;;;;;;14.00;99.90;;;;;;5179038;27;19923;-41
2023/10/22 12:55:04;;;;;;;;;;;14.00;99.90;;;;;;5178999;27;20428;-41
2023/10/22 12:57:30;;;;;;;;;;;14.00;99.90;;;;;;5178902;27;19930;-41
2023/10/22 12:59:56;;;;;;;;;;;14.00;99.90;;;;;;5178831;27;20370;-41
2023/10/22 13:02:21;;;;;;;;;;;14.00;99.90;;;;;;5178779;27;19923;-41
2023/10/22 13:04:47;;;;;;;;;;;14.00;99.90;;;;;;5178529;27;19934;-42
2023/10/22 13:07:13;;;;;;;;;;;14.10;99.90;;;;;;5178418;27;19946;-41
2023/10/22 13:09:39;;;;;;;;;;;14.10;99.90;;;;;;5178681;27;20381;-41
2023/10/22 13:12:04;;;;;;;;;;;14.20;99.90;;;;;;5178842;27;19923;-42
2023/10/22 13:14:30;;;;;;;;;;;14.20;99.90;;;;;;5178444;27;19922;-41
2023/10/22 13:16:56;;;;;;;;;;;14.20;99.90;;;;;;5178520;27;19923;-41
2023/10/22 13:19:22;;;;;;;;;;;14.20;99.90;;;;;;5178374;27;19923;-42
2023/10/22 13:21:48;;;;;;;;;;;14.20;99.90;;;;;;5178423;27;20017;-41
2023/10/22 13:24:13;;;;;;;;;;;14.20;99.90;;;;;;5160103;27;20341;-41
2023/10/22 13:26:39;;;;;;;;;;;14.30;99.90;;;;;;5178511;27;19923;-41
2023/10/22 13:29:08;;;;;;;;;;;14.30;99.90;;;;;;5178509;27;19922;-42
2023/10/22 13:31:34;;;;;;;;;;;14.30;99.90;;;;;;5178083;27;19927;-42
2023/10/22 13:34:00;;;;;;;;;;;14.40;99.90;;;;;;5177906;27;19929;-42
2023/10/22 13:36:25;;;;;;;;;;;14.40;99.90;;;;;;5178303;27;19922;-41
2023/10/22 13:38:51;;;;;;;;;;;14.50;99.90;;;;;;5178416;27;20022;-41
2023/10/22 13:41:17;;;;;;;;;;;14.40;99.90;;;;;;5178392;27;19923;-41
2023/10/22 13:43:43;;;;;;;;;;;14.40;99.90;;;;;;5177985;27;19933;-41
2023/10/22 13:46:08;;;;;;;;;;;14.40;99.90;;;;;;5177808;27;20385;-41
2023/10/22 13:48:34;;;;;;;;;;;14.40;99.90;;;;;;5177786;27;19923;-41
2023/10/22 13:51:06;;;;;;;;;;;14.40;99.90;;;;;;5177521;27;19927;-41
2023/10/22 13:53:31;;;;;;;;;;;14.40;99.90;;;;;;5178082;27;19967;-41
2023/10/22 13:55:57;;;;;;;;;;;14.40;99.90;;;;;;5177774;27;20319;-41
2023/10/22 13:58:23;;;;;;;;;;;14.40;99.90;;;;;;5177644;27;19922;-41
2023/10/22 14:00:49;;;;;;;;;;;14.40;99.90;;;;;;5159062;27;19972;-41
2023/10/22 14:03:14;;;;;;;;;;;14.40;99.90;;;;;;5177590;27;19922;-42
2023/10/22 14:05:47;;;;;;;;;;;14.40;99.90;;;;;;5177578;27;19922;-41
2023/10/22 14:08:12;;;;;;;;;;;14.40;99.90;;;;;;5177435;27;19927;-41
2023/10/22 14:10:41;;;;;;;;;;;14.40;99.90;;;;;;5177428;27;19923;-41